Time;durP1;ratioP1;P1;durP2;ratioP2;P2;SDS_P1;SDS_P2;PMS_P1;PMS_P2;Temp;Humidity;BMP_temperature;BMP_pressure;BME280_temperature;BME280_humidity;BME280_pressure;Samples;Min_cycle;Max_cycle;Signal;HPM_P1;HPM_P2
2024/04/14 00:00:31;;;;;;;;;;;;;;;13.97;100.00;96197.47;5320471;26;20275;-73
2024/04/14 00:02:58;;;;;;;;;;;;;;;13.99;100.00;96198.00;5351011;26;19930;-73
2024/04/14 00:05:26;;;;;;;;;;;;;;;13.93;100.00;96202.66;5352967;26;19930;-74
2024/04/14 00:07:54;;;;;;;;;;;;;;;13.90;100.00;96195.09;5355705;26;20303;-73
2024/04/14 00:10:21;;;;;;;;;;;;;;;13.92;100.00;96190.22;5321595;26;20277;-73
2024/04/14 00:12:48;;;;;;;;;;;;;;;13.85;100.00;96184.34;5353304;26;19929;-73
2024/04/14 00:15:16;;;;;;;;;;;;;;;13.81;100.00;96177.88;5353360;26;19930;-75
2024/04/14 00:17:43;;;;;;;;;;;;;;;13.70;100.00;96173.69;5354972;26;19930;-73
2024/04/14 00:20:12;;;;;;;;;;;;;;;13.71;100.00;96171.78;5352692;26;19929;-73
2024/04/14 00:22:39;;;;;;;;;;;;;;;13.71;100.00;96167.19;5350413;26;19930;-73
2024/04/14 00:25:06;;;;;;;;;;;;;;;13.72;100.00;96165.28;5354873;26;19930;-73
2024/04/14 00:27:34;;;;;;;;;;;;;;;13.68;100.00;96167.75;5354137;26;19936;-73
2024/04/14 00:30:02;;;;;;;;;;;;;;;13.58;100.00;96168.66;5357825;26;19930;-74
2024/04/14 00:32:29;;;;;;;;;;;;;;;13.58;100.00;96167.84;5353168;26;20542;-73
2024/04/14 00:34:57;;;;;;;;;;;;;;;13.44;100.00;96162.25;5349383;26;20023;-73
2024/04/14 00:37:25;;;;;;;;;;;;;;;13.42;100.00;96169.06;5350897;26;20267;-73
2024/04/14 00:39:52;;;;;;;;;;;;;;;13.48;100.00;96165.22;5354779;26;19930;-73
2024/04/14 00:42:19;;;;;;;;;;;;;;;13.48;100.00;96162.50;5357894;26;19929;-72
2024/04/14 00:44:47;;;;;;;;;;;;;;;13.48;100.00;96167.91;5346053;26;19930;-73
2024/04/14 00:47:14;;;;;;;;;;;;;;;13.42;100.00;96169.84;5350146;26;20276;-73
2024/04/14 00:49:42;;;;;;;;;;;;;;;13.43;100.00;96167.97;5356124;26;20399;-73
2024/04/14 00:52:09;;;;;;;;;;;;;;;13.41;100.00;96168.25;5349440;26;19930;-73
2024/04/14 00:54:37;;;;;;;;;;;;;;;13.34;100.00;96173.16;5360040;26;20380;-74
2024/04/14 00:57:04;;;;;;;;;;;;;;;13.22;100.00;96168.09;5348890;26;19930;-73
2024/04/14 00:59:32;;;;;;;;;;;;;;;13.11;100.00;96163.84;5353111;26;19936;-74
2024/04/14 01:02:00;;;;;;;;;;;;;;;13.08;100.00;96163.56;5353057;26;19936;-73
2024/04/14 01:04:31;;;;;;;;;;;;;;;13.06;100.00;96154.97;5335121;26;19936;-73
2024/04/14 01:06:58;;;;;;;;;;;;;;;13.04;100.00;96163.34;5351832;26;19936;-74
2024/04/14 01:09:26;;;;;;;;;;;;;;;12.93;100.00;96155.59;5352234;26;19929;-74
2024/04/14 01:11:53;;;;;;;;;;;;;;;12.97;100.00;96149.34;5353196;26;19929;-73
2024/04/14 01:14:21;;;;;;;;;;;;;;;12.97;100.00;96143.16;5351454;26;19934;-74
2024/04/14 01:16:49;;;;;;;;;;;;;;;12.90;100.00;96140.75;5355714;26;20360;-73
2024/04/14 01:19:16;;;;;;;;;;;;;;;12.87;100.00;96144.81;5351641;26;19929;-73
2024/04/14 01:21:45;;;;;;;;;;;;;;;12.84;100.00;96150.78;5350749;26;19940;-73
2024/04/14 01:24:13;;;;;;;;;;;;;;;12.79;100.00;96144.59;5351649;26;19936;-74
2024/04/14 01:26:40;;;;;;;;;;;;;;;12.83;100.00;96140.28;5354978;26;19930;-73
2024/04/14 01:29:07;;;;;;;;;;;;;;;12.84;100.00;96142.69;5359820;26;20368;-73
2024/04/14 01:31:34;;;;;;;;;;;;;;;12.80;100.00;96146.22;5348665;26;19936;-73
2024/04/14 01:34:02;;;;;;;;;;;;;;;12.71;100.00;96148.69;5353059;26;19935;-73
2024/04/14 01:36:29;;;;;;;;;;;;;;;12.70;100.00;96151.69;5352371;26;20718;-73
2024/04/14 01:38:56;;;;;;;;;;;;;;;12.62;100.00;96144.16;5354070;26;19929;-73
2024/04/14 01:41:23;;;;;;;;;;;;;;;12.61;100.00;96137.97;5326130;26;19929;-73
2024/04/14 01:43:51;;;;;;;;;;;;;;;12.58;100.00;96137.69;5350864;26;19934;-74
2024/04/14 01:46:18;;;;;;;;;;;;;;;12.55;100.00;96132.88;5353966;26;20356;-72
2024/04/14 01:48:45;;;;;;;;;;;;;;;12.48;100.00;96136.69;5354992;26;19936;-72
2024/04/14 01:51:13;;;;;;;;;;;;;;;12.38;100.00;96128.63;5354322;26;19936;-73
2024/04/14 01:53:40;;;;;;;;;;;;;;;12.43;100.00;96125.91;5353368;26;19930;-73
2024/04/14 01:56:07;;;;;;;;;;;;;;;12.49;100.00;96118.63;5349476;26;20439;-73
2024/04/14 01:58:35;;;;;;;;;;;;;;;12.51;100.00;96116.44;5329760;26;19945;-73
2024/04/14 02:01:02;;;;;;;;;;;;;;;12.44;100.00;96116.72;5352071;26;20302;-73
2024/04/14 02:03:29;;;;;;;;;;;;;;;12.32;100.00;96110.88;5357648;26;19934;-73
2024/04/14 02:05:58;;;;;;;;;;;;;;;12.31;100.00;96111.13;5349630;26;19936;-74
2024/04/14 02:08:25;;;;;;;;;;;;;;;12.28;100.00;96117.06;5350967;26;19930;-73
2024/04/14 02:10:52;;;;;;;;;;;;;;;12.17;100.00;96120.91;5350502;26;19929;-73
2024/04/14 02:13:20;;;;;;;;;;;;;;;12.13;100.00;96117.16;5349365;26;19936;-73
2024/04/14 02:15:47;;;;;;;;;;;;;;;12.16;100.00;96121.97;5357061;26;19929;-73
2024/04/14 02:18:14;;;;;;;;;;;;;;;12.17;100.00;96129.78;5352220;26;20377;-74
2024/04/14 02:20:43;;;;;;;;;;;;;;;12.11;100.00;96122.81;5353977;26;19930;-73
2024/04/14 02:23:11;;;;;;;;;;;;;;;12.11;100.00;96120.13;5356341;26;19937;-73
2024/04/14 02:25:38;;;;;;;;;;;;;;;12.08;100.00;96116.06;5356489;26;20419;-73
2024/04/14 02:28:06;;;;;;;;;;;;;;;12.08;100.00;96117.97;5323561;26;19930;-73
2024/04/14 02:30:33;;;;;;;;;;;;;;;12.08;100.00;96117.97;5347900;26;20253;-74
2024/04/14 02:33:01;;;;;;;;;;;;;;;12.10;100.00;96121.19;5353205;26;20276;-72
2024/04/14 02:35:28;;;;;;;;;;;;;;;12.05;100.00;96113.91;5353652;26;19930;-73
2024/04/14 02:37:55;;;;;;;;;;;;;;;12.04;100.00;96125.81;5356036;26;19936;-73
2024/04/14 02:40:23;;;;;;;;;;;;;;;12.02;100.00;96108.28;5348527;26;19930;-73
2024/04/14 02:42:50;;;;;;;;;;;;;;;12.00;100.00;96113.13;5351727;26;19960;-74
2024/04/14 02:45:18;;;;;;;;;;;;;;;11.90;100.00;96107.78;5354069;26;19930;-73
2024/04/14 02:47:45;;;;;;;;;;;;;;;11.92;100.00;96109.13;5353684;26;19930;-73
2024/04/14 02:50:13;;;;;;;;;;;;;;;11.95;100.00;96102.38;5355703;26;19930;-73
2024/04/14 02:52:40;;;;;;;;;;;;;;;11.92;100.00;96109.13;5349762;26;19936;-73
2024/04/14 02:58:10;;;;;;;;;;;;;;;11.82;100.00;96106.47;5769468;21;19929;-73
2024/04/14 03:00:38;;;;;;;;;;;;;;;11.82;100.00;96098.38;5340991;26;19964;-73
2024/04/14 03:03:06;;;;;;;;;;;;;;;11.82;100.00;96098.38;5345498;26;20267;-73
2024/04/14 03:05:33;;;;;;;;;;;;;;;11.84;100.00;96090.81;5344088;26;19930;-74
2024/04/14 03:08:00;;;;;;;;;;;;;;;11.85;100.00;96092.44;5345386;26;19968;-73
2024/04/14 03:10:28;;;;;;;;;;;;;;;11.75;100.00;96087.09;5339511;26;19937;-73
2024/04/14 03:12:55;;;;;;;;;;;;;;;11.71;100.00;96089.47;5345515;26;19929;-73
2024/04/14 03:15:22;;;;;;;;;;;;;;;11.75;100.00;96089.78;5344256;26;19929;-73
2024/04/14 03:17:49;;;;;;;;;;;;;;;11.63;100.00;96081.97;5346003;26;20244;-73
2024/04/14 03:20:17;;;;;;;;;;;;;;;11.66;100.00;96078.72;5340675;26;19930;-74
2024/04/14 03:22:44;;;;;;;;;;;;;;;11.62;100.00;96076.84;5344466;26;19930;-73
2024/04/14 03:25:12;;;;;;;;;;;;;;;11.65;100.00;96076.31;5347626;26;19936;-73
2024/04/14 03:27:39;;;;;;;;;;;;;;;11.67;100.00;96082.25;5339521;26;19929;-73
2024/04/14 03:30:07;;;;;;;;;;;;;;;11.70;100.00;96085.19;5317313;26;19930;-73
2024/04/14 03:32:34;;;;;;;;;;;;;;;11.68;100.00;96086.53;5345660;26;19930;-73
2024/04/14 03:35:02;;;;;;;;;;;;;;;11.70;100.00;96085.19;5349191;26;19936;-74
2024/04/14 03:37:29;;;;;;;;;;;;;;;11.70;100.00;96085.19;5348512;26;19936;-73
2024/04/14 03:39:56;;;;;;;;;;;;;;;11.69;100.00;96086.25;5349607;26;19929;-73
2024/04/14 03:42:24;;;;;;;;;;;;;;;11.67;100.00;96084.94;5351060;26;20395;-73
2024/04/14 03:44:54;;;;;;;;;;;;;;;11.65;100.00;96079.81;5344994;26;20456;-74
2024/04/14 03:47:21;;;;;;;;;;;;;;;11.63;100.00;96079.28;5350467;26;20564;-73
2024/04/14 03:49:49;;;;;;;;;;;;;;;11.58;100.00;96071.22;5342184;26;19936;-73
2024/04/14 03:52:16;;;;;;;;;;;;;;;11.60;100.00;96079.03;5341658;26;19930;-73
2024/04/14 03:54:44;;;;;;;;;;;;;;;11.56;100.00;96070.66;5349439;26;19930;-73
2024/04/14 03:57:11;;;;;;;;;;;;;;;11.56;100.00;96065.28;5342645;26;19942;-73
2024/04/14 03:59:39;;;;;;;;;;;;;;;11.56;100.00;96067.97;5340787;26;20494;-72
2024/04/14 04:02:06;;;;;;;;;;;;;;;11.53;100.00;96071.22;5349498;26;19930;-73
2024/04/14 04:04:34;;;;;;;;;;;;;;;11.49;100.00;96067.44;5344495;26;19960;-73
2024/04/14 04:07:01;;;;;;;;;;;;;;;11.45;100.00;96066.41;5349936;26;19936;-74
2024/04/14 04:09:28;;;;;;;;;;;;;;;11.35;100.00;96071.78;5345676;26;20267;-73
2024/04/14 04:11:56;;;;;;;;;;;;;;;11.35;100.00;96068.28;5346775;26;19964;-72
2024/04/14 04:14:23;;;;;;;;;;;;;;;11.37;100.00;96063.44;5342420;26;19930;-73
2024/04/14 04:16:53;;;;;;;;;;;;;;;11.40;100.00;96077.16;5349182;26;20305;-73
2024/04/14 04:19:21;;;;;;;;;;;;;;;11.37;100.00;96075.03;5316299;26;19937;-73
2024/04/14 04:21:54;;;;;;;;;;;;;;;11.36;100.00;96069.91;5343528;26;19934;-73
2024/04/14 04:24:22;;;;;;;;;;;;;;;11.35;100.00;96068.28;5348269;26;19933;-72
2024/04/14 04:26:51;;;;;;;;;;;;;;;11.38;100.00;96065.88;5312966;26;19964;-73
2024/04/14 04:29:19;;;;;;;;;;;;;;;11.36;100.00;96068.03;5349492;26;19936;-73
2024/04/14 04:31:46;;;;;;;;;;;;;;;11.36;100.00;96062.63;5348388;26;19930;-73
2024/04/14 04:34:13;;;;;;;;;;;;;;;11.32;100.00;96064.28;5347184;26;19940;-73
2024/04/14 04:36:41;;;;;;;;;;;;;;;11.33;100.00;96060.47;5342802;26;19937;-72
2024/04/14 04:39:08;;;;;;;;;;;;;;;11.36;100.00;96049.19;5344835;26;19930;-73
2024/04/14 04:41:35;;;;;;;;;;;;;;;11.39;100.00;96056.72;5347318;26;19930;-73
2024/04/14 04:44:05;;;;;;;;;;;;;;;11.38;100.00;96057.78;5348586;26;19929;-74
2024/04/14 04:46:33;;;;;;;;;;;;;;;11.39;100.00;96059.41;5350268;26;20321;-73
2024/04/14 04:49:00;;;;;;;;;;;;;;;11.35;100.00;96057.53;5345064;26;19937;-72
2024/04/14 04:51:28;;;;;;;;;;;;;;;11.34;100.00;96048.63;5345519;26;19929;-73
2024/04/14 04:53:55;;;;;;;;;;;;;;;11.31;100.00;96049.19;5348948;26;19930;-73
2024/04/14 04:56:22;;;;;;;;;;;;;;;11.35;100.00;96044.06;5346810;26;20321;-73
2024/04/14 04:58:49;;;;;;;;;;;;;;;11.38;100.00;96044.34;5345915;26;20076;-72
2024/04/14 05:01:17;;;;;;;;;;;;;;;11.37;100.00;96042.72;5348997;26;20331;-73
2024/04/14 05:03:44;;;;;;;;;;;;;;;11.42;100.00;96034.63;5350354;26;20267;-73
2024/04/14 05:06:12;;;;;;;;;;;;;;;11.45;100.00;96044.06;5344420;26;20592;-72
2024/04/14 05:08:40;;;;;;;;;;;;;;;11.46;100.00;96046.47;5347277;26;20465;-73
2024/04/14 05:11:07;;;;;;;;;;;;;;;11.49;100.00;96045.09;5347132;26;19935;-73
2024/04/14 05:13:34;;;;;;;;;;;;;;;11.50;100.00;96036.75;5318661;26;19946;-73
2024/04/14 05:16:03;;;;;;;;;;;;;;;11.57;100.00;96036.47;5346079;26;19937;-73
2024/04/14 05:18:31;;;;;;;;;;;;;;;11.61;100.00;96027.59;5339615;26;19936;-73
2024/04/14 05:20:59;;;;;;;;;;;;;;;11.68;100.00;96028.13;5338554;26;19930;-73
2024/04/14 05:23:26;;;;;;;;;;;;;;;11.79;100.00;96020.00;5342079;26;19933;-73
2024/04/14 05:25:53;;;;;;;;;;;;;;;11.88;100.00;96026.44;5343004;26;19930;-73
2024/04/14 05:28:20;;;;;;;;;;;;;;;11.96;100.00;96023.19;5346436;26;19935;-73
2024/04/14 05:30:48;;;;;;;;;;;;;;;12.13;100.00;96017.44;5345072;26;20267;-73
2024/04/14 05:33:15;;;;;;;;;;;;;;;12.24;100.00;96019.00;5344374;26;20275;-73
2024/04/14 05:35:55;;;;;;;;;;;;;;;12.27;100.00;96019.22;5347244;26;19929;-73
2024/04/14 05:38:22;;;;;;;;;;;;;;;12.28;100.00;96018.16;5309679;26;19936;-73
2024/04/14 05:40:50;;;;;;;;;;;;;;;12.35;100.00;96021.34;5343032;26;19930;-74
2024/04/14 05:43:17;;;;;;;;;;;;;;;12.42;100.00;96021.03;5344496;26;19960;-74
2024/04/14 05:45:45;;;;;;;;;;;;;;;12.50;100.00;96023.13;5349049;26;20297;-74
2024/04/14 05:48:13;;;;;;;;;;;;;;;12.61;100.00;96013.09;5344847;26;19936;-73
2024/04/14 05:50:41;;;;;;;;;;;;;;;12.73;100.00;96005.44;5340870;26;19930;-73
2024/04/14 05:53:08;;;;;;;;;;;;;;;12.91;100.00;95994.00;5333558;26;19930;-74
2024/04/14 05:55:35;;;;;;;;;;;;;;;13.23;100.00;95988.03;5347982;26;20020;-74
2024/04/14 05:58:03;;;;;;;;;;;;;;;13.42;100.00;95980.84;5346242;26;19929;-73
2024/04/14 06:00:30;;;;;;;;;;;;;;;13.81;100.00;95966.31;5338396;26;19929;-73
2024/04/14 06:02:59;;;;;;;;;;;;;;;14.02;100.00;95967.69;5340334;26;19930;-74
2024/04/14 06:05:27;;;;;;;;;;;;;;;14.29;100.00;95956.22;5345985;26;19929;-73
2024/04/14 06:07:54;;;;;;;;;;;;;;;14.62;100.00;95949.78;5315706;26;20037;-74
2024/04/14 06:10:22;;;;;;;;;;;;;;;14.84;100.00;95961.88;5345892;26;20376;-74
2024/04/14 06:12:49;;;;;;;;;;;;;;;15.09;100.00;95981.22;5343218;26;20322;-73
2024/04/14 06:15:16;;;;;;;;;;;;;;;15.26;100.00;95993.41;5342431;26;19960;-74
2024/04/14 06:17:43;;;;;;;;;;;;;;;15.53;100.00;95996.97;5339567;26;19932;-73
2024/04/14 06:20:11;;;;;;;;;;;;;;;15.70;100.00;96018.06;5343701;26;20421;-74
2024/04/14 06:22:38;;;;;;;;;;;;;;;15.72;100.00;96042.13;5337929;26;20253;-74
2024/04/14 06:25:06;;;;;;;;;;;;;;;15.99;100.00;96054.94;5337217;26;19945;-73
2024/04/14 06:27:33;;;;;;;;;;;;;;;16.21;100.00;96058.53;5334977;26;20193;-74
2024/04/14 06:30:00;;;;;;;;;;;;;;;16.35;100.00;96072.91;5345010;26;20433;-74
2024/04/14 06:32:28;;;;;;;;;;;;;;;16.38;100.00;96087.75;5348343;26;19930;-74
2024/04/14 06:34:55;;;;;;;;;;;;;;;16.46;100.00;96102.50;5339005;26;20646;-74
2024/04/14 06:37:22;;;;;;;;;;;;;;;16.55;100.00;96119.69;5345597;26;20031;-74
2024/04/14 06:39:50;;;;;;;;;;;;;;;16.77;100.00;96125.22;5346154;26;19929;-73
2024/04/14 06:42:17;;;;;;;;;;;;;;;16.90;100.00;96137.16;5348074;26;19937;-74
2024/04/14 06:44:44;;;;;;;;;;;;;;;16.99;100.00;96140.78;5348362;26;19930;-74
2024/04/14 06:47:11;;;;;;;;;;;;;;;17.23;100.00;96156.81;5343259;26;20360;-74
2024/04/14 06:49:39;;;;;;;;;;;;;;;17.25;100.00;96160.00;5339675;26;19936;-74
2024/04/14 06:52:06;;;;;;;;;;;;;;;17.39;100.00;96175.16;5344004;26;19930;-74
2024/04/14 06:54:33;;;;;;;;;;;;;;;17.50;100.00;96195.56;5347606;26;20834;-74
2024/04/14 06:57:01;;;;;;;;;;;;;;;17.65;100.00;96213.47;5347660;26;19930;-74
2024/04/14 06:59:28;;;;;;;;;;;;;;;18.03;100.00;96216.63;5332736;26;20260;-73
2024/04/14 07:01:56;;;;;;;;;;;;;;;18.40;100.00;96229.00;5337882;26;20263;-74
2024/04/14 07:04:23;;;;;;;;;;;;;;;19.30;100.00;96219.38;5345793;26;20392;-74
2024/04/14 07:06:51;;;;;;;;;;;;;;;19.80;100.00;96230.66;5342721;26;19930;-74
2024/04/14 07:09:18;;;;;;;;;;;;;;;19.70;100.00;96249.28;5341566;26;19939;-74
2024/04/14 07:11:45;;;;;;;;;;;;;;;20.19;100.00;96246.06;5336777;26;20275;-74
2024/04/14 07:14:13;;;;;;;;;;;;;;;20.23;100.00;96264.53;5331594;26;19930;-74
2024/04/14 07:16:40;;;;;;;;;;;;;;;19.88;100.00;96263.72;5345874;26;20359;-74
2024/04/14 07:19:08;;;;;;;;;;;;;;;19.53;100.00;96243.81;5340106;26;20227;-74
2024/04/14 07:21:36;;;;;;;;;;;;;;;19.22;100.00;96241.97;5344764;26;20255;-74
2024/04/14 07:24:03;;;;;;;;;;;;;;;19.05;100.00;96241.94;5345855;26;19930;-74
2024/04/14 07:26:32;;;;;;;;;;;;;;;19.25;100.00;96246.00;5341849;26;20463;-73
2024/04/14 07:29:00;;;;;;;;;;;;;;;19.30;100.00;96246.63;5348087;26;20676;-74
2024/04/14 07:31:27;;;;;;;;;;;;;;;19.09;100.00;96239.38;5343158;26;20319;-74
2024/04/14 07:34:01;;;;;;;;;;;;;;;19.17;100.00;96247.56;5347139;26;19930;-74
2024/04/14 07:36:28;;;;;;;;;;;;;;;19.07;100.00;96253.31;5343909;26;19972;-73
2024/04/14 07:38:56;;;;;;;;;;;;;;;19.00;100.00;96242.06;5341552;26;19930;-74
2024/04/14 07:41:23;;;;;;;;;;;;;;;19.29;100.00;96239.56;5349123;26;19939;-75
2024/04/14 07:43:51;;;;;;;;;;;;;;;19.48;100.00;96238.53;5345419;26;19936;-74
2024/04/14 07:46:19;;;;;;;;;;;;;;;19.62;100.00;96248.16;5344391;26;20329;-74
2024/04/14 07:48:47;;;;;;;;;;;;;;;19.78;100.00;96243.03;5343632;26;20272;-75
2024/04/14 07:51:14;;;;;;;;;;;;;;;19.90;100.00;96248.66;5347406;26;19936;-74
2024/04/14 07:53:41;;;;;;;;;;;;;;;19.88;100.00;96229.06;5342906;26;19930;-74
2024/04/14 07:56:09;;;;;;;;;;;;;;;20.15;100.00;96239.66;5342289;26;19930;-74
2024/04/14 07:58:36;;;;;;;;;;;;;;;20.14;100.00;96237.25;5342922;26;19930;-74
2024/04/14 08:01:04;;;;;;;;;;;;;;;20.47;100.00;96240.22;5343756;26;19930;-74
2024/04/14 08:03:32;;;;;;;;;;;;;;;20.54;100.00;96246.00;5345616;26;19929;-74
2024/04/14 08:06:16;;;;;;;;;;;;;;;20.52;100.00;96251.81;5348837;26;20378;-74
2024/04/14 08:08:43;;;;;;;;;;;;;;;20.34;100.00;96257.63;5311751;26;19929;-74
2024/04/14 08:11:11;;;;;;;;;;;;;;;20.53;100.00;96266.25;5317008;26;20035;-74
2024/04/14 08:13:39;;;;;;;;;;;;;;;20.64;100.00;96264.78;5345956;26;19936;-74
2024/04/14 08:16:06;;;;;;;;;;;;;;;20.82;100.00;96277.25;5346018;26;20268;-74
2024/04/14 08:18:34;;;;;;;;;;;;;;;20.73;100.00;96271.03;5346977;26;19930;-74
2024/04/14 08:21:05;;;;;;;;;;;;;;;20.83;100.00;96272.56;5344202;26;20270;-74
2024/04/14 08:23:32;;;;;;;;;;;;;;;20.93;100.00;96262.09;5350770;26;19930;-74
2024/04/14 08:26:00;;;;;;;;;;;;;;;20.72;100.00;96257.69;5348097;26;19935;-74
2024/04/14 08:28:27;;;;;;;;;;;;;;;20.81;100.00;96259.25;5343529;26;19940;-74
2024/04/14 08:30:54;;;;;;;;;;;;;;;20.99;100.00;96258.03;5346292;26;19930;-75
2024/04/14 08:33:21;;;;;;;;;;;;;;;21.03;100.00;96257.41;5344238;26;20305;-74
2024/04/14 08:35:49;;;;;;;;;;;;;;;20.88;100.00;96259.56;5347741;26;19936;-74
2024/04/14 08:38:17;;;;;;;;;;;;;;;20.99;100.00;96266.25;5348590;26;19930;-75
2024/04/14 08:40:53;;;;;;;;;;;;;;;20.96;100.00;96268.84;5342754;26;19936;-74
2024/04/14 08:43:21;;;;;;;;;;;;;;;21.12;100.00;96256.22;5335928;26;19929;-74
2024/04/14 08:45:49;;;;;;;;;;;;;;;21.03;100.00;96268.34;5341116;26;19936;-74
2024/04/14 08:48:17;;;;;;;;;;;;;;;21.05;100.00;96266.84;5342637;26;20290;-74
2024/04/14 08:50:46;;;;;;;;;;;;;;;21.14;100.00;96266.81;5346708;26;20359;-74
2024/04/14 08:53:17;;;;;;;;;;;;;;;21.29;100.00;96266.28;5344994;26;21464;-74
2024/04/14 08:55:45;;;;;;;;;;;;;;;21.22;100.00;96272.28;5321713;26;19929;-74
2024/04/14 08:58:14;;;;;;;;;;;;;;;21.32;100.00;96274.66;5344784;26;19961;-74
2024/04/14 09:00:47;;;;;;;;;;;;;;;21.43;100.00;96279.72;5340056;26;19940;-74
2024/04/14 09:03:14;;;;;;;;;;;;;;;21.20;100.00;96269.06;5344508;26;20422;-74
2024/04/14 09:05:42;;;;;;;;;;;;;;;21.34;100.00;96280.56;5344563;26;19929;-74
2024/04/14 09:08:10;;;;;;;;;;;;;;;21.51;100.00;96287.88;5347878;26;20594;-74
2024/04/14 09:10:37;;;;;;;;;;;;;;;21.65;100.00;96290.38;5347375;26;19940;-74
2024/04/14 09:13:05;;;;;;;;;;;;;;;21.91;100.00;96292.94;5338188;26;19930;-75
2024/04/14 09:15:39;;;;;;;;;;;;;;;22.03;100.00;96290.28;5339313;26;20170;-74
2024/04/14 09:18:07;;;;;;;;;;;;;;;21.87;100.00;96303.75;5342666;26;19930;-74
2024/04/14 09:20:34;;;;;;;;;;;;;;;22.08;100.00;96293.63;5347871;26;19929;-75
2024/04/14 09:23:01;;;;;;;;;;;;;;;22.28;100.00;96291.22;5346363;26;19930;-74
2024/04/14 09:25:28;;;;;;;;;;;;;;;22.23;100.00;96288.66;5338590;26;19930;-74
2024/04/14 09:28:02;;;;;;;;;;;;;;;22.05;100.00;96282.53;5344761;26;19936;-74
2024/04/14 09:30:30;;;;;;;;;;;;;;;22.09;100.00;96283.47;5345402;26;19937;-74
2024/04/14 09:32:57;;;;;;;;;;;;;;;22.08;100.00;96281.84;5348560;26;19937;-75
2024/04/14 09:35:25;;;;;;;;;;;;;;;22.01;100.00;96287.06;5340757;26;19930;-75
2024/04/14 09:37:52;;;;;;;;;;;;;;;22.07;100.00;96291.22;5347096;26;19936;-74
2024/04/14 09:40:22;;;;;;;;;;;;;;;22.26;100.00;96288.81;5313735;26;19930;-75
2024/04/14 09:42:50;;;;;;;;;;;;;;;22.44;100.00;96295.72;5345279;26;19930;-74
2024/04/14 09:45:17;;;;;;;;;;;;;;;22.05;100.00;96290.75;5319247;26;19935;-75
2024/04/14 09:47:45;;;;;;;;;;;;;;;22.34;100.00;96289.88;5347337;26;20386;-74
2024/04/14 09:50:12;;;;;;;;;;;;;;;22.09;100.00;96288.94;5347806;26;19929;-74
2024/04/14 09:52:42;;;;;;;;;;;;;;;22.31;100.00;96299.53;5344785;26;19930;-75
2024/04/14 09:55:09;;;;;;;;;;;;;;;22.37;100.00;96284.50;5333996;26;19930;-75
2024/04/14 09:57:37;;;;;;;;;;;;;;;22.31;100.00;96285.84;5340736;26;19929;-73
2024/04/14 10:00:04;;;;;;;;;;;;;;;22.41;100.00;96284.63;5319840;26;19930;-75
2024/04/14 10:02:33;;;;;;;;;;;;;;;22.64;100.00;96285.84;5344801;26;19930;-74
2024/04/14 10:05:02;;;;;;;;;;;;;;;22.77;100.00;96284.78;5344758;26;19936;-75
2024/04/14 10:07:29;;;;;;;;;;;;;;;22.45;100.00;96286.34;5344636;26;19936;-75
2024/04/14 10:09:57;;;;;;;;;;;;;;;22.37;100.00;96279.03;5348748;26;19929;-74
2024/04/14 10:12:24;;;;;;;;;;;;;;;22.55;100.00;96276.91;5349958;26;19945;-74
2024/04/14 10:14:54;;;;;;;;;;;;;;;22.70;100.00;96280.94;5349437;26;20339;-75
2024/04/14 10:17:21;;;;;;;;;;;;;;;22.72;100.00;96289.66;5345916;26;19930;-74
2024/04/14 10:19:56;;;;;;;;;;;;;;;22.76;100.00;96283.16;5347147;26;19930;-74
2024/04/14 10:22:29;;;;;;;;;;;;;;;22.92;100.00;96288.78;5347078;26;19930;-75
2024/04/14 10:24:57;;;;;;;;;;;;;;;22.81;100.00;96279.41;5344574;26;20571;-74
2024/04/14 10:27:24;;;;;;;;;;;;;;;23.03;100.00;96272.69;5317423;26;19929;-74
2024/04/14 10:29:58;;;;;;;;;;;;;;;23.03;100.00;96272.69;5349251;26;19929;-74
2024/04/14 10:32:25;;;;;;;;;;;;;;;22.84;100.00;96281.47;5346227;26;20526;-75
2024/04/14 10:34:54;;;;;;;;;;;;;;;23.00;100.00;96282.41;5344719;26;19936;-74
2024/04/14 10:37:22;;;;;;;;;;;;;;;22.35;100.00;96278.56;5345270;26;19930;-74
2024/04/14 10:39:50;;;;;;;;;;;;;;;22.66;100.00;96267.13;5345475;26;20285;-74
2024/04/14 10:42:18;;;;;;;;;;;;;;;22.98;100.00;96281.94;5347663;26;19929;-74
2024/04/14 10:44:45;;;;;;;;;;;;;;;23.17;100.00;96276.69;5349009;26;19930;-75
2024/04/14 10:47:16;;;;;;;;;;;;;;;23.11;100.00;96283.56;5341457;26;19930;-75
2024/04/14 10:49:46;;;;;;;;;;;;;;;23.08;100.00;96278.78;5346626;26;19937;-74
2024/04/14 10:52:14;;;;;;;;;;;;;;;23.14;100.00;96282.06;5346135;26;20405;-74
2024/04/14 10:54:42;;;;;;;;;;;;;;;23.06;100.00;96286.53;5349461;26;19964;-74
2024/04/14 10:57:09;;;;;;;;;;;;;;;22.96;100.00;96278.75;5345864;26;19930;-74
2024/04/14 10:59:37;;;;;;;;;;;;;;;23.13;100.00;96275.78;5346522;26;19936;-74
2024/04/14 11:02:05;;;;;;;;;;;;;;;23.17;100.00;96273.94;5345458;26;19936;-74
2024/04/14 11:04:32;;;;;;;;;;;;;;;23.21;100.00;96285.06;5341323;26;19929;-74
2024/04/14 11:07:01;;;;;;;;;;;;;;;23.24;100.00;96279.66;5340573;26;19930;-74
2024/04/14 11:09:29;;;;;;;;;;;;;;;23.25;100.00;96277.72;5347421;26;20291;-75
2024/04/14 11:11:57;;;;;;;;;;;;;;;23.29;100.00;96279.47;5331950;26;19930;-74
2024/04/14 11:14:25;;;;;;;;;;;;;;;23.19;100.00;96288.13;5336282;26;20263;-74
2024/04/14 11:16:52;;;;;;;;;;;;;;;23.22;100.00;96281.16;5337746;26;20545;-75
2024/04/14 11:19:19;;;;;;;;;;;;;;;23.15;100.00;96281.75;5344924;26;19930;-74
2024/04/14 11:21:48;;;;;;;;;;;;;;;23.12;100.00;96278.88;5340957;26;19929;-74
2024/04/14 11:24:15;;;;;;;;;;;;;;;23.04;100.00;96271.53;5345710;26;19929;-74
2024/04/14 11:26:42;;;;;;;;;;;;;;;23.15;100.00;96276.25;5345677;26;19930;-74
2024/04/14 11:29:09;;;;;;;;;;;;;;;23.15;100.00;96270.78;5315313;26;19937;-74
2024/04/14 11:31:37;;;;;;;;;;;;;;;23.19;100.00;96274.41;5348753;26;19929;-75
2024/04/14 11:34:06;;;;;;;;;;;;;;;23.17;100.00;96262.97;5342608;26;19938;-75
2024/04/14 11:36:40;;;;;;;;;;;;;;;23.13;100.00;96258.53;5342413;26;19929;-74
2024/04/14 11:39:09;;;;;;;;;;;;;;;23.04;100.00;96263.31;5344158;26;20310;-75
2024/04/14 11:41:36;;;;;;;;;;;;;;;23.12;100.00;96248.69;5340705;26;19937;-74
2024/04/14 11:44:03;;;;;;;;;;;;;;;23.07;100.00;96251.69;5339526;26;20328;-74
2024/04/14 11:46:31;;;;;;;;;;;;;;;22.82;100.00;96246.16;5347260;26;19929;-74
2024/04/14 11:48:58;;;;;;;;;;;;;;;22.95;100.00;96249.72;5347784;26;19936;-75
2024/04/14 11:51:25;;;;;;;;;;;;;;;23.07;100.00;96252.47;5346242;26;19936;-74
2024/04/14 11:53:52;;;;;;;;;;;;;;;23.04;100.00;96246.88;5346255;26;19934;-74
2024/04/14 11:56:20;;;;;;;;;;;;;;;23.11;100.00;96247.91;5345484;26;20276;-74
2024/04/14 11:58:47;;;;;;;;;;;;;;;23.22;100.00;96246.31;5347442;26;20437;-74
2024/04/14 12:01:14;;;;;;;;;;;;;;;23.22;100.00;96246.31;5346012;26;19930;-75
2024/04/14 12:03:42;;;;;;;;;;;;;;;23.10;100.00;96254.53;5338163;26;20287;-75
2024/04/14 12:06:09;;;;;;;;;;;;;;;23.08;100.00;96240.38;5349186;26;20429;-74
2024/04/14 12:08:36;;;;;;;;;;;;;;;23.24;100.00;96238.53;5348635;26;19930;-74
2024/04/14 12:11:04;;;;;;;;;;;;;;;23.16;100.00;96244.13;5341130;26;19930;-75
2024/04/14 12:13:31;;;;;;;;;;;;;;;23.15;100.00;96237.88;5342482;26;19936;-74
2024/04/14 12:15:58;;;;;;;;;;;;;;;23.13;100.00;96242.09;5341820;26;19957;-75
2024/04/14 12:18:26;;;;;;;;;;;;;;;23.18;100.00;96231.66;5345023;26;19937;-74
2024/04/14 12:20:53;;;;;;;;;;;;;;;23.20;100.00;96229.41;5314117;26;19944;-75
2024/04/14 12:23:20;;;;;;;;;;;;;;;23.11;100.00;96225.16;5346533;26;19936;-75
2024/04/14 12:25:48;;;;;;;;;;;;;;;22.94;100.00;96226.19;5343710;26;19936;-74
2024/04/14 12:28:15;;;;;;;;;;;;;;;22.99;100.00;96230.66;5349387;26;19929;-74
2024/04/14 12:30:43;;;;;;;;;;;;;;;23.06;100.00;96228.94;5344306;26;19930;-75
2024/04/14 12:33:18;;;;;;;;;;;;;;;23.06;100.00;96223.47;5343369;26;20013;-75
2024/04/14 12:35:45;;;;;;;;;;;;;;;23.11;100.00;96217.72;5343429;26;20330;-74
2024/04/14 12:38:13;;;;;;;;;;;;;;;23.09;100.00;96219.22;5350116;26;20115;-74
2024/04/14 12:40:40;;;;;;;;;;;;;;;23.06;100.00;96215.22;5337280;26;19930;-74